Time;durP1;ratioP1;P1;durP2;ratioP2;P2;SDS_P1;SDS_P2;PMS_P1;PMS_P2;Temp;Humidity;BMP_temperature;BMP_pressure;BME280_temperature;BME280_humidity;BME280_pressure;Samples;Min_cycle;Max_cycle;Signal;HPM_P1;HPM_P2
2022/09/26 00:01:46;;;;;;;11.63;9.75;;;;;;;15.47;87.43;99722.03;5059431;28;20044;-67
2022/09/26 00:04:14;;;;;;;12.82;9.65;;;;;;;15.38;88.10;99715.00;5076737;28;20479;-67
2022/09/26 00:06:41;;;;;;;12.48;9.57;;;;;;;15.40;87.97;99722.91;5064461;28;20029;-67
2022/09/26 00:09:06;;;;;;;11.95;9.23;;;;;;;15.36;88.00;99727.88;5061987;28;20373;-67
2022/09/26 00:11:33;;;;;;;14.30;10.25;;;;;;;15.35;88.21;99718.03;5064537;28;20070;-67
2022/09/26 00:14:02;;;;;;;12.15;9.57;;;;;;;15.30;88.54;99712.34;5065819;28;20036;-66
2022/09/26 00:16:28;;;;;;;10.30;9.18;;;;;;;15.29;88.92;99715.22;5063035;28;20028;-67
2022/09/26 00:18:55;;;;;;;13.50;9.55;;;;;;;15.29;89.01;99721.44;5061179;28;20119;-66
2022/09/26 00:21:22;;;;;;;13.45;10.23;;;;;;;15.26;88.94;99721.78;5069903;28;20416;-67
2022/09/26 00:23:48;;;;;;;14.90;10.70;;;;;;;15.24;89.38;99715.75;5081503;28;20020;-67
2022/09/26 00:26:16;;;;;;;11.38;9.77;;;;;;;15.19;89.40;99709.19;5071235;28;20429;-66
2022/09/26 00:28:42;;;;;;;11.20;9.65;;;;;;;15.21;89.60;99713.41;5063188;28;20795;-66
2022/09/26 00:31:17;;;;;;;13.13;10.80;;;;;;;15.16;89.46;99696.06;5061484;28;20016;-67
2022/09/26 00:33:43;;;;;;;12.23;10.55;;;;;;;15.20;89.57;99710.88;5059566;28;20045;-67
2022/09/26 00:36:09;;;;;;;13.00;10.25;;;;;;;15.22;89.55;99708.84;5063807;28;20066;-65
2022/09/26 00:38:35;;;;;;;15.40;11.13;;;;;;;15.22;89.76;99706.97;5061508;28;20237;-65
2022/09/26 00:41:02;;;;;;;13.98;11.00;;;;;;;15.10;89.45;99684.13;5061446;28;20384;-65
2022/09/26 00:43:42;;;;;;;11.93;10.35;;;;;;;15.23;89.90;99699.72;5062760;28;20492;-65
2022/09/26 00:46:14;;;;;;;13.68;10.10;;;;;;;15.26;89.51;99704.75;5071459;28;20065;-65
2022/09/26 00:48:41;;;;;;;14.02;10.10;;;;;;;15.24;89.91;99707.66;5052900;28;20024;-65
2022/09/26 00:51:07;;;;;;;15.60;11.07;;;;;;;15.22;90.18;99706.97;5067896;28;20503;-64
2022/09/26 00:53:40;;;;;;;14.70;10.70;;;;;;;15.17;90.46;99708.53;5069422;28;20025;-64
2022/09/26 00:56:19;;;;;;;15.43;11.13;;;;;;;15.12;91.03;99698.25;5061554;28;20036;-65
2022/09/26 00:58:50;;;;;;;16.45;11.30;;;;;;;15.18;91.96;99696.69;5048507;28;20550;-65
2022/09/26 01:01:18;;;;;;;14.48;10.68;;;;;;;15.19;91.63;99691.13;5081210;28;20028;-65
2022/09/26 01:03:48;;;;;;;13.77;9.90;;;;;;;15.15;91.84;99689.81;5059467;28;20033;-65
2022/09/26 01:06:15;;;;;;;13.60;11.15;;;;;;;15.12;92.40;99686.63;5039991;28;20036;-65
2022/09/26 01:09:07;;;;;;;12.45;10.13;;;;;;;15.11;92.86;99685.78;5066284;28;20024;-65
2022/09/26 01:11:36;;;;;;;15.32;11.73;;;;;;;15.08;92.87;99675.34;5063708;28;20115;-65
2022/09/26 01:14:04;;;;;;;16.50;12.77;;;;;;;15.13;92.36;99669.41;5071512;28;20035;-65
2022/09/26 01:16:30;;;;;;;15.73;12.73;;;;;;;15.15;92.13;99672.75;5069614;28;20082;-67
2022/09/26 01:18:57;;;;;;;17.08;11.68;;;;;;;15.11;91.82;99660.63;5070895;28;20487;-67
2022/09/26 01:21:34;;;;;;;17.08;12.70;;;;;;;15.18;91.66;99670.53;5067130;28;20033;-67
2022/09/26 01:24:11;;;;;;;15.77;12.55;;;;;;;15.19;91.38;99666.81;5069806;28;20036;-67
2022/09/26 01:27:13;;;;;;;15.25;11.00;;;;;;;15.21;91.35;99664.78;5069884;28;20087;-67
2022/09/26 01:30:06;;;;;;;16.45;11.93;;;;;;;15.17;91.08;99655.34;5066287;28;20376;-67
2022/09/26 01:33:00;;;;;;;15.70;12.93;;;;;;;15.19;91.72;99661.41;5077753;28;20035;-67
2022/09/26 01:35:53;;;;;;;14.00;11.60;;;;;;;15.23;91.53;99660.03;5062965;28;20045;-67
2022/09/26 01:39:16;;;;;;;15.07;11.52;;;;;;;15.20;91.69;99646.91;5043582;28;20131;-66
2022/09/26 01:42:00;;;;;;;15.82;12.32;;;;;;;15.22;92.01;99641.31;4995933;28;20038;-66
2022/09/26 01:44:35;;;;;;;17.15;12.80;;;;;;;15.23;91.74;99630.31;4989413;28;20038;-66
2022/09/26 01:47:36;;;;;;;15.02;13.25;;;;;;;15.23;91.82;99630.31;5047122;28;20052;-64
2022/09/26 01:50:05;;;;;;;17.95;14.63;;;;;;;15.24;91.92;99618.50;5067190;28;20086;-64
2022/09/26 01:52:35;;;;;;;19.17;14.25;;;;;;;15.27;91.98;99620.84;5078878;28;20033;-64
2022/09/26 01:55:10;;;;;;;18.63;14.40;;;;;;;15.17;91.67;99586.97;5075155;28;20040;-64
2022/09/26 01:58:02;;;;;;;18.92;14.40;;;;;;;15.26;91.62;99597.50;5047753;28;20044;-64
2022/09/26 02:00:29;;;;;;;19.30;15.30;;;;;;;15.26;91.37;99599.41;5077457;28;20452;-64
2022/09/26 02:02:57;;;;;;;19.15;14.98;;;;;;;15.30;91.56;99606.97;5065141;28;20107;-64
2022/09/26 02:05:34;;;;;;;18.95;15.57;;;;;;;15.32;91.30;99604.09;5075095;28;20032;-64
2022/09/26 02:08:40;;;;;;;20.23;15.38;;;;;;;15.26;91.14;99602.09;5068981;28;20041;-65
2022/09/26 02:11:14;;;;;;;24.00;16.02;;;;;;;15.33;91.35;99608.44;4982845;28;20028;-64
2022/09/26 02:14:04;;;;;;;17.80;15.32;;;;;;;15.35;91.63;99607.25;5068338;28;20511;-64
2022/09/26 02:16:40;;;;;;;19.27;15.90;;;;;;;15.37;91.63;99607.09;5074602;28;20033;-64
2022/09/26 02:19:19;;;;;;;21.38;15.75;;;;;;;15.37;91.31;99599.84;5070033;28;20468;-64
2022/09/26 02:21:45;;;;;;;21.15;14.95;;;;;;;15.37;91.34;99596.28;5068820;28;20039;-65
2022/09/26 02:24:10;;;;;;;20.35;15.27;;;;;;;15.31;91.56;99586.16;5074021;28;20036;-64
2022/09/26 02:26:36;;;;;;;21.45;16.05;;;;;;;15.34;92.13;99583.94;5064549;28;20021;-64
2022/09/26 02:29:02;;;;;;;19.88;16.38;;;;;;;15.39;92.89;99595.09;5049860;28;20047;-65
2022/09/26 02:31:34;;;;;;;19.83;16.27;;;;;;;15.41;93.62;99595.75;5068033;28;20020;-65
2022/09/26 02:34:01;;;;;;;25.52;17.40;;;;;;;15.42;94.28;99597.41;5074729;28;20399;-66
2022/09/26 02:36:27;;;;;;;23.33;17.75;;;;;;;15.42;94.77;99592.00;5054031;28;22338;-66
2022/09/26 02:38:53;;;;;;;20.30;16.48;;;;;;;15.44;95.21;99594.53;5062156;28;20400;-66
2022/09/26 02:41:52;;;;;;;23.08;16.38;;;;;;;15.39;95.11;99592.41;5063530;28;20020;-65
2022/09/26 02:44:42;;;;;;;20.85;17.20;;;;;;;15.42;95.20;99613.63;5064971;28;20101;-66
2022/09/26 02:47:26;;;;;;;21.30;17.30;;;;;;;15.48;95.53;99626.41;5057165;28;20032;-66
2022/09/26 02:50:01;;;;;;;26.58;17.25;;;;;;;15.43;96.66;99622.59;5066291;28;20060;-73
2022/09/26 02:52:29;;;;;;;;;;;;;;;15.38;97.09;99628.53;5069261;28;20025;-72
2022/09/26 02:55:07;;;;;;;22.65;17.38;;;;;;;15.33;97.88;99630.06;5069424;28;19925;-73
2022/09/26 02:58:09;;;;;;;21.58;17.20;;;;;;;15.30;99.16;99625.88;5047862;28;20027;-73
2022/09/26 03:00:49;;;;;;;20.75;16.20;;;;;;;15.27;99.93;99623.53;5058657;28;20408;-74
2022/09/26 03:03:34;;;;;;;18.67;15.52;;;;;;;15.21;99.86;99639.59;5069863;28;20832;-72
2022/09/26 03:06:02;;;;;;;20.02;15.93;;;;;;;15.26;99.75;99643.44;5051570;28;20028;-72
2022/09/26 03:08:37;;;;;;;19.70;16.25;;;;;;;15.22;100.00;99660.22;5064200;28;20036;-72
2022/09/26 03:11:06;;;;;;;21.58;15.82;;;;;;;15.14;100.00;99682.72;5052130;28;20036;-72
2022/09/26 03:13:39;;;;;;;20.77;17.27;;;;;;;15.06;100.00;99673.84;5057771;28;20028;-72
2022/09/26 03:16:06;;;;;;;24.63;17.30;;;;;;;15.06;100.00;99679.25;5048343;28;20028;-71
2022/09/26 03:19:01;;;;;;;23.95;18.33;;;;;;;15.00;100.00;99683.47;5053521;28;20025;-72
2022/09/26 03:21:27;;;;;;;22.35;17.45;;;;;;;14.93;100.00;99671.69;5065112;28;20124;-72
2022/09/26 03:23:53;;;;;;;26.48;19.38;;;;;;;14.82;100.00;99650.53;5073474;28;20107;-72
2022/09/26 03:26:23;;;;;;;23.10;17.45;;;;;;;14.83;100.00;99637.88;5079245;28;20024;-72
2022/09/26 03:28:50;;;;;;;24.55;18.35;;;;;;;14.77;100.00;99628.59;5049760;28;20040;-71
2022/09/26 03:31:20;;;;;;;23.48;17.85;;;;;;;14.81;100.00;99638.06;5068891;28;20060;-72
2022/09/26 03:33:46;;;;;;;22.92;17.48;;;;;;;14.74;100.00;99634.34;5085143;28;20034;-73
2022/09/26 03:36:12;;;;;;;21.48;18.38;;;;;;;14.66;100.00;99620.91;5071651;28;20036;-73
2022/09/26 03:38:38;;;;;;;24.10;18.63;;;;;;;14.71;100.00;99621.25;5075151;28;20741;-73
2022/09/26 03:41:04;;;;;;;21.95;18.83;;;;;;;14.71;100.00;99615.84;5071645;28;20037;-73
2022/09/26 03:43:30;;;;;;;21.60;18.88;;;;;;;14.70;100.00;99611.44;5050902;28;20021;-73
2022/09/26 03:45:56;;;;;;;23.20;18.23;;;;;;;14.73;100.00;99613.78;5075660;28;20032;-73
2022/09/26 03:48:21;;;;;;;22.88;19.23;;;;;;;14.66;100.00;99596.63;5077507;28;20032;-73
2022/09/26 03:50:47;;;;;;;22.73;18.33;;;;;;;14.70;100.00;99597.94;5071147;28;21220;-73
2022/09/26 03:53:13;;;;;;;29.05;20.85;;;;;;;14.68;100.00;99596.44;5067910;28;20058;-73
2022/09/26 03:55:38;;;;;;;27.00;20.08;;;;;;;14.68;100.00;99594.59;5050443;28;20175;-73
2022/09/26 03:58:04;;;;;;;24.30;18.67;;;;;;;14.68;100.00;99588.34;5075341;28;20055;-73
2022/09/26 04:00:30;;;;;;;23.60;18.25;;;;;;;14.70;100.00;99594.44;5077998;28;20031;-72
2022/09/26 04:02:56;;;;;;;21.92;18.98;;;;;;;14.67;100.00;99589.38;5067104;28;20108;-72
2022/09/26 04:05:22;;;;;;;23.15;19.25;;;;;;;14.67;100.00;99581.28;5068570;28;20017;-72
2022/09/26 04:07:47;;;;;;;21.70;18.05;;;;;;;14.68;100.00;99570.31;5051793;28;20086;-72
2022/09/26 04:10:13;;;;;;;22.88;18.90;;;;;;;14.69;100.00;99561.19;5073329;28;20024;-66
2022/09/26 04:12:39;;;;;;;26.05;19.27;;;;;;;14.67;100.00;99538.09;5066060;28;20044;-66
2022/09/26 04:15:06;;;;;;;20.67;18.40;;;;;;;14.69;100.00;99541.44;5076113;28;20115;-66
2022/09/26 04:17:32;;;;;;;25.08;20.20;;;;;;;14.72;100.00;99546.50;5050507;28;20036;-67
2022/09/26 04:19:58;;;;;;;21.02;17.77;;;;;;;14.69;100.00;99541.44;5049235;28;20089;-67
2022/09/26 04:22:24;;;;;;;23.75;20.77;;;;;;;14.63;100.00;99526.81;5056286;28;20028;-74
2022/09/26 04:24:50;;;;;;;24.05;20.05;;;;;;;14.64;100.00;99528.47;5061539;28;20582;-74
2022/09/26 04:27:16;;;;;;;25.55;20.88;;;;;;;14.70;100.00;99535.88;5057407;28;20032;-74
2022/09/26 04:29:42;;;;;;;23.70;21.05;;;;;;;14.70;100.00;99530.47;5071909;28;20028;-73
2022/09/26 04:32:08;;;;;;;23.63;20.75;;;;;;;14.68;100.00;99527.13;5077964;28;20021;-74
2022/09/26 04:34:34;;;;;;;26.95;22.45;;;;;;;14.59;100.00;99522.81;5070542;28;20044;-74
2022/09/26 04:36:59;;;;;;;24.88;19.10;;;;;;;14.64;100.00;99533.06;5069688;28;20019;-74
2022/09/26 04:39:25;;;;;;;24.48;19.77;;;;;;;14.62;100.00;99527.00;5075240;28;20028;-74
2022/09/26 04:41:52;;;;;;;24.25;19.33;;;;;;;14.67;100.00;99544.31;5070816;28;20101;-74
2022/09/26 04:44:17;;;;;;;26.70;21.73;;;;;;;14.66;100.00;99539.94;5066314;28;20372;-74
2022/09/26 04:46:43;;;;;;;25.58;20.67;;;;;;;14.70;100.00;99537.75;5071423;28;20025;-74
2022/09/26 04:49:09;;;;;;;24.35;20.25;;;;;;;14.68;100.00;99523.56;5071304;28;20028;-74
2022/09/26 04:51:35;;;;;;;24.35;19.75;;;;;;;14.66;100.00;99526.47;5070311;28;20028;-74
2022/09/26 04:54:01;;;;;;;27.30;21.13;;;;;;;14.66;100.00;99526.47;5043705;28;20027;-73
2022/09/26 04:56:28;;;;;;;23.52;20.85;;;;;;;14.70;100.00;99530.47;5067433;28;20484;-74
2022/09/26 04:58:55;;;;;;;21.25;18.27;;;;;;;14.71;100.00;99521.38;5071107;28;20035;-73
2022/09/26 05:01:21;;;;;;;24.35;19.25;;;;;;;14.58;100.00;99512.19;5090308;28;20262;-73
2022/09/26 05:03:47;;;;;;;21.17;18.23;;;;;;;14.67;100.00;99530.00;5068981;28;20492;-73
2022/09/26 05:06:14;;;;;;;23.17;20.45;;;;;;;14.66;100.00;99526.47;5059646;28;20137;-66
2022/09/26 05:08:45;;;;;;;22.38;19.70;;;;;;;14.71;100.00;99534.88;5053846;28;20509;-66
2022/09/26 05:11:11;;;;;;;23.88;20.40;;;;;;;14.65;100.00;99523.94;5055642;28;20036;-64
2022/09/26 05:13:37;;;;;;;23.05;19.60;;;;;;;14.71;100.00;99529.47;5057127;28;20163;-66
2022/09/26 05:16:06;;;;;;;26.00;20.35;;;;;;;14.72;100.00;99528.44;5062564;28;20032;-66
2022/09/26 05:18:32;;;;;;;24.65;21.38;;;;;;;14.71;100.00;99532.16;5057308;28;20521;-67
2022/09/26 05:20:58;;;;;;;22.92;19.23;;;;;;;14.75;100.00;99538.88;5070266;28;20028;-65
2022/09/26 05:26:26;;;;;;;22.90;19.88;;;;;;;14.74;100.00;99547.97;5073982;28;20047;-66
2022/09/26 05:29:03;;;;;;;24.30;19.90;;;;;;;14.71;100.00;99542.97;5062063;28;20038;-66
2022/09/26 05:31:31;;;;;;;23.58;19.02;;;;;;;14.70;100.00;99546.66;5044723;28;20109;-66
2022/09/26 05:33:57;;;;;;;23.52;19.95;;;;;;;14.75;100.00;99563.19;5068002;28;20106;-65
2022/09/26 05:36:23;;;;;;;24.33;20.88;;;;;;;14.76;100.00;99570.25;5066247;28;20032;-66
2022/09/26 05:53:09;;;;;;;26.20;21.50;;;;;;;14.90;100.00;99569.44;5166290;27;20187;-66
2022/09/26 05:55:36;;;;;;;24.77;20.17;;;;;;;14.85;100.00;99554.81;5144064;27;20572;-66
2022/09/26 05:58:04;;;;;;;23.33;20.85;;;;;;;14.92;100.00;99578.22;5145502;27;20043;-67
2022/09/26 06:00:29;;;;;;;23.63;21.00;;;;;;;14.94;100.00;99584.31;5144543;27;20043;-67
2022/09/26 06:02:56;;;;;;;24.17;21.10;;;;;;;14.93;100.00;99596.09;5140276;27;20485;-67
2022/09/26 06:05:23;;;;;;;22.17;19.85;;;;;;;14.98;100.00;99607.22;5138038;27;20466;-67
2022/09/26 06:07:49;;;;;;;26.05;19.30;;;;;;;14.90;100.00;99604.56;5125507;27;20385;-66
2022/09/26 06:10:14;;;;;;;22.67;19.17;;;;;;;14.98;100.00;99628.81;5134586;27;20029;-73
2022/09/26 06:12:40;;;;;;;22.58;19.40;;;;;;;14.93;100.00;99624.97;5140992;27;20118;-73
2022/09/26 06:15:08;;;;;;;23.08;19.98;;;;;;;14.96;100.00;99643.53;5140612;27;20031;-73
2022/09/26 06:17:34;;;;;;;25.95;20.80;;;;;;;14.93;100.00;99633.09;5131089;27;20516;-73
2022/09/26 06:20:00;;;;;;;23.95;21.17;;;;;;;14.93;100.00;99617.69;5143503;27;20031;-73
2022/09/26 06:22:26;;;;;;;24.17;21.52;;;;;;;14.87;100.00;99569.00;5145219;27;20045;-72
2022/09/26 06:24:51;;;;;;;26.08;22.08;;;;;;;14.95;100.00;99563.53;5142642;27;20027;-72
2022/09/26 06:27:17;;;;;;;24.40;20.17;;;;;;;14.94;100.00;99543.78;5143457;27;20741;-73
2022/09/26 06:29:42;;;;;;;26.17;22.42;;;;;;;14.94;100.00;99542.94;5136828;27;20038;-73
2022/09/26 06:32:08;;;;;;;24.42;21.35;;;;;;;14.97;100.00;99534.47;5123959;27;20186;-73
2022/09/26 06:34:33;;;;;;;27.70;22.38;;;;;;;14.91;100.00;99521.72;5140295;27;20467;-73
2022/09/26 06:36:59;;;;;;;28.92;22.30;;;;;;;14.87;100.00;99505.00;5142733;27;20027;-73
2022/09/26 06:39:30;;;;;;;29.20;23.33;;;;;;;14.92;100.00;99505.31;5143901;27;20019;-73
2022/09/26 06:41:55;;;;;;;24.42;21.83;;;;;;;14.93;100.00;99515.09;5144332;27;20469;-72
2022/09/26 06:44:22;;;;;;;26.00;23.00;;;;;;;14.93;100.00;99530.47;5144253;27;20088;-72
2022/09/26 06:46:48;;;;;;;28.30;23.67;;;;;;;14.91;100.00;99525.25;5144384;27;20038;-72
2022/09/26 06:49:13;;;;;;;26.58;23.75;;;;;;;14.94;100.00;99534.84;5144324;27;20026;-73
2022/09/26 06:51:39;;;;;;;27.20;23.90;;;;;;;14.90;100.00;99523.56;5143555;27;20402;-73
2022/09/26 06:54:04;;;;;;;30.20;24.40;;;;;;;14.93;100.00;99525.06;5129885;27;20023;-72
2022/09/26 06:56:30;;;;;;;28.65;25.27;;;;;;;14.88;100.00;99497.75;5130148;27;20015;-73
2022/09/26 06:58:56;;;;;;;29.52;24.55;;;;;;;15.00;100.00;99499.84;5129449;27;20027;-72
2022/09/26 07:01:21;;;;;;;29.02;23.88;;;;;;;15.02;100.00;99495.09;5129620;27;20444;-72
2022/09/26 07:03:47;;;;;;;29.50;25.58;;;;;;;15.03;100.00;99512.16;5129201;27;20030;-73
2022/09/26 07:06:13;;;;;;;32.78;25.58;;;;;;;15.04;100.00;99517.38;5129672;27;20027;-72
2022/09/26 07:08:39;;;;;;;31.77;24.55;;;;;;;15.10;100.00;99505.84;5129906;27;20107;-72
2022/09/26 07:11:04;;;;;;;27.95;24.92;;;;;;;15.05;100.00;99491.19;5129464;27;20031;-72
2022/09/26 07:13:30;;;;;;;29.02;25.02;;;;;;;15.08;100.00;99502.47;5129590;27;20023;-72
2022/09/26 07:15:59;;;;;;;27.83;24.20;;;;;;;15.04;100.00;99498.47;5129824;27;20019;-72
2022/09/26 07:18:25;;;;;;;32.35;24.73;;;;;;;15.17;100.00;99516.75;5129886;27;20022;-72
2022/09/26 07:20:52;;;;;;;28.45;25.40;;;;;;;15.15;100.00;99505.28;5129257;27;20331;-73
2022/09/26 07:23:17;;;;;;;28.25;23.85;;;;;;;15.27;100.00;99514.63;5129710;27;20061;-73
2022/09/26 07:25:44;;;;;;;27.23;24.30;;;;;;;15.30;100.00;99511.56;5129307;27;20058;-73
2022/09/26 07:28:10;;;;;;;30.38;22.90;;;;;;;15.34;100.00;99529.91;5129122;27;20027;-72
2022/09/26 07:30:35;;;;;;;30.20;23.67;;;;;;;15.38;100.00;99541.25;5129386;27;20410;-73
2022/09/26 07:33:02;;;;;;;27.80;23.85;;;;;;;15.40;100.00;99547.28;5129654;27;20069;-72
2022/09/26 07:35:30;;;;;;;28.83;24.05;;;;;;;15.42;100.00;99548.75;5145344;27;20039;-71
2022/09/26 07:37:55;;;;;;;27.65;23.88;;;;;;;15.40;100.00;99550.84;5129501;27;20039;-71
2022/09/26 07:40:21;;;;;;;25.95;22.35;;;;;;;15.46;100.00;99555.50;5129270;27;20031;-72
2022/09/26 07:42:47;;;;;;;27.00;22.73;;;;;;;15.49;100.00;99587.56;5128576;27;20054;-71
2022/09/26 07:45:13;;;;;;;25.55;22.20;;;;;;;15.42;100.00;99578.50;5126250;27;20485;-72
2022/09/26 07:50:22;;;;;;;26.33;22.83;;;;;;;15.63;100.00;99583.19;5126461;27;20030;-67
2022/09/26 07:52:49;;;;;;;27.95;22.30;;;;;;;15.54;100.00;99570.78;5125417;27;20058;-66
2022/09/26 07:55:17;;;;;;;28.02;22.63;;;;;;;15.58;100.00;99581.03;5126928;27;20078;-66
2022/09/26 07:57:43;;;;;;;27.88;23.45;;;;;;;15.56;100.00;99580.41;5126861;27;20118;-67
2022/09/26 08:00:11;;;;;;;28.17;23.77;;;;;;;15.61;100.00;99582.56;5126632;27;20019;-66
2022/09/26 08:02:41;;;;;;;29.35;22.98;;;;;;;15.54;100.00;99565.38;5127143;27;20023;-67
2022/09/26 08:05:11;;;;;;;25.77;22.85;;;;;;;15.59;100.00;99587.28;5126292;27;20106;-69
2022/09/26 08:07:37;;;;;;;24.73;22.13;;;;;;;15.63;100.00;99586.75;5127287;27;20070;-71
2022/09/26 08:10:06;;;;;;;25.02;22.40;;;;;;;15.66;100.00;99583.66;5124176;27;20031;-71
2022/09/26 08:12:36;;;;;;;24.88;21.80;;;;;;;15.77;100.00;99580.50;5118108;27;20027;-73
2022/09/26 08:15:05;;;;;;;23.25;20.80;;;;;;;15.77;100.00;99574.28;5119213;27;20536;-71
2022/09/26 08:17:31;;;;;;;25.50;21.60;;;;;;;15.74;100.00;99564.66;5126911;27;20019;-72
2022/09/26 08:19:58;;;;;;;24.00;21.25;;;;;;;15.83;100.00;99568.94;5110046;27;20027;-71
2022/09/26 08:22:23;;;;;;;24.00;21.40;;;;;;;15.87;100.00;99566.72;5133842;27;20046;-71
2022/09/26 08:24:49;;;;;;;26.52;22.48;;;;;;;15.90;100.00;99569.06;5126634;27;20182;-71
2022/09/26 08:27:16;;;;;;;25.05;21.42;;;;;;;15.88;100.00;99539.50;5128200;27;20482;-72
2022/09/26 08:29:47;;;;;;;25.65;21.80;;;;;;;15.99;100.00;99553.56;5110628;27;20386;-71
2022/09/26 08:32:13;;;;;;;25.55;21.17;;;;;;;16.04;100.00;99553.81;5125480;27;20023;-71
2022/09/26 08:34:39;;;;;;;26.42;22.05;;;;;;;16.08;100.00;99555.13;5127688;27;20050;-71
2022/09/26 08:37:05;;;;;;;23.25;20.83;;;;;;;15.99;100.00;99523.81;5127513;27;20077;-70
2022/09/26 08:39:31;;;;;;;24.20;20.17;;;;;;;16.19;100.00;99555.50;5109431;27;20077;-71
2022/09/26 08:42:22;;;;;;;22.05;19.63;;;;;;;16.29;100.00;99566.88;5125956;27;20008;-70
2022/09/26 08:44:57;;;;;;;22.75;20.35;;;;;;;16.32;100.00;99560.22;5126655;27;20027;-71
2022/09/26 08:47:34;;;;;;;;;;;;;;;16.37;100.00;99557.78;5127772;27;20031;-72
2022/09/26 08:50:13;;;;;;;22.13;19.33;;;;;;;16.37;100.00;99557.78;5110826;27;19915;-71
2022/09/26 08:52:41;;;;;;;21.83;18.88;;;;;;;16.50;100.00;99560.66;5126039;27;20056;-71
2022/09/26 08:55:16;;;;;;;20.60;18.42;;;;;;;16.52;100.00;99562.19;5125691;27;20461;-71
2022/09/26 08:57:48;;;;;;;22.52;18.73;;;;;;;16.57;100.00;99561.63;5124573;27;20535;-70
2022/09/26 09:00:23;;;;;;;21.88;19.48;;;;;;;16.57;100.00;99562.44;5126017;27;20027;-71
2022/09/26 09:03:01;;;;;;;20.52;17.80;;;;;;;16.64;100.00;99566.03;5125106;27;20506;-70
2022/09/26 09:05:32;;;;;;;21.13;18.27;;;;;;;16.65;100.00;99566.91;5111332;27;20059;-70
2022/09/26 09:08:02;;;;;;;20.15;17.35;;;;;;;16.58;100.00;99556.00;5110439;27;20848;-71
2022/09/26 09:10:50;;;;;;;20.20;17.42;;;;;;;16.65;100.00;99566.91;5126578;27;20494;-67
2022/09/26 09:13:30;;;;;;;19.63;17.63;;;;;;;16.69;100.00;99570.91;5124696;27;20164;-66
2022/09/26 09:16:11;;;;;;;24.05;21.17;;;;;;;16.68;100.00;99566.50;5125532;27;20019;-65
2022/09/26 09:19:08;;;;;;;22.73;20.25;;;;;;;16.71;100.00;99569.69;5126518;27;20023;-66
2022/09/26 09:21:52;;;;;;;18.40;16.48;;;;;;;16.75;100.00;99578.25;5109860;27;20023;-64
2022/09/26 09:24:19;;;;;;;18.85;16.83;;;;;;;16.73;100.00;99561.38;5122331;27;20025;-66
2022/09/26 09:27:00;;;;;;;18.38;16.48;;;;;;;16.81;100.00;99569.38;5126493;27;20525;-70
2022/09/26 09:29:44;;;;;;;20.02;17.98;;;;;;;16.87;100.00;99568.59;5127297;27;20488;-71
2022/09/26 09:32:15;;;;;;;18.33;16.38;;;;;;;16.82;100.00;99550.22;5111145;27;20104;-71
2022/09/26 09:34:43;;;;;;;18.08;15.48;;;;;;;16.95;100.00;99563.03;5127075;27;20019;-70
2022/09/26 09:37:18;;;;;;;18.27;16.38;;;;;;;16.94;100.00;99566.78;5116667;27;20533;-70
2022/09/26 09:39:46;;;;;;;18.45;16.45;;;;;;;16.98;100.00;99576.19;5126876;28;20463;-69
2022/09/26 09:42:14;;;;;;;20.92;17.27;;;;;;;17.03;100.00;99563.75;5119756;27;20012;-71
2022/09/26 09:45:04;;;;;;;19.13;16.48;;;;;;;17.01;100.00;99551.44;5115406;28;20474;-70
2022/09/26 09:47:33;;;;;;;19.10;16.20;;;;;;;16.96;100.00;99541.16;5116812;27;20042;-70
2022/09/26 09:49:58;;;;;;;16.98;15.18;;;;;;;17.03;100.00;99542.06;5123180;28;20083;-70
2022/09/26 09:52:42;;;;;;;16.80;13.88;;;;;;;17.03;100.00;99546.66;5126075;28;20039;-70
2022/09/26 09:55:20;;;;;;;15.85;13.38;;;;;;;17.02;100.00;99551.25;5126275;27;20533;-70
2022/09/26 09:57:51;;;;;;;14.70;12.82;;;;;;;17.06;100.00;99557.94;5115471;27;20027;-70
2022/09/26 10:00:19;;;;;;;14.75;11.52;;;;;;;17.14;100.00;99552.41;5126332;28;20098;-70
2022/09/26 10:03:00;;;;;;;14.18;11.95;;;;;;;17.17;100.00;99556.59;5114632;28;20835;-69
2022/09/26 10:05:43;;;;;;;12.25;11.00;;;;;;;17.21;100.00;99552.44;5122097;27;20432;-70
2022/09/26 10:08:18;;;;;;;13.05;11.60;;;;;;;17.21;100.00;99558.72;5116599;28;20488;-69
2022/09/26 10:11:02;;;;;;;12.45;11.15;;;;;;;17.28;100.00;99561.50;5125037;27;20118;-70
2022/09/26 10:13:31;;;;;;;15.97;10.73;;;;;;;17.26;100.00;99550.00;5124665;27;20034;-69
2022/09/26 10:16:07;;;;;;;11.27;10.13;;;;;;;17.30;100.00;99537.72;5126429;27;20363;-70
2022/09/26 10:19:12;;;;;;;11.93;10.52;;;;;;;17.48;100.00;99562.53;5125892;27;20031;-69
2022/09/26 10:21:47;;;;;;;13.63;10.97;;;;;;;17.54;100.00;99546.28;5125762;27;20082;-70
2022/09/26 10:24:39;;;;;;;13.25;11.48;;;;;;;17.65;100.00;99542.19;5122038;28;20102;-69
2022/09/26 10:27:21;;;;;;;14.63;11.05;;;;;;;17.81;100.00;99529.16;5124561;27;20019;-69
2022/09/26 10:29:58;;;;;;;17.27;11.52;;;;;;;17.87;100.00;99536.47;5129275;27;20102;-70
2022/09/26 10:32:25;;;;;;;12.80;10.65;;;;;;;17.82;100.00;99517.25;5124519;27;20020;-70
2022/09/26 10:35:17;;;;;;;13.40;12.00;;;;;;;18.02;100.00;99552.63;5118706;27;20023;-71
2022/09/26 10:37:45;;;;;;;12.95;11.05;;;;;;;17.98;100.00;99535.09;5130016;27;20614;-70
2022/09/26 10:40:44;;;;;;;13.45;11.55;;;;;;;18.05;100.00;99544.94;5145788;27;20066;-70
2022/09/26 10:43:19;;;;;;;10.85;9.63;;;;;;;18.06;100.00;99541.16;5129505;27;20027;-69
2022/09/26 10:45:47;;;;;;;12.50;10.18;;;;;;;17.90;100.00;99538.78;5129375;27;20027;-69
2022/09/26 10:48:17;;;;;;;15.35;11.10;;;;;;;17.99;100.00;99556.59;5129660;27;20055;-70
2022/09/26 10:50:50;;;;;;;17.73;11.90;;;;;;;17.99;100.00;99553.88;5129330;27;20070;-68
2022/09/26 10:53:18;;;;;;;16.30;12.52;;;;;;;17.91;100.00;99548.63;5114910;27;20023;-70
2022/09/26 10:55:57;;;;;;;16.60;13.18;;;;;;;17.94;100.00;99558.22;5126126;27;20023;-70
2022/09/26 10:58:28;;;;;;;16.30;13.70;;;;;;;17.93;100.00;99551.97;5116355;27;20438;-69
2022/09/26 11:00:56;;;;;;;18.73;14.25;;;;;;;17.92;100.00;99565.72;5128562;27;20512;-69
2022/09/26 11:03:44;;;;;;;13.70;11.13;;;;;;;17.89;100.00;99555.25;5129719;27;20390;-69
2022/09/26 11:06:32;;;;;;;14.40;11.65;;;;;;;17.84;100.00;99555.03;5114204;27;20027;-69
2022/09/26 11:09:02;;;;;;;12.90;10.93;;;;;;;17.95;100.00;99549.03;5129831;27;20062;-69
2022/09/26 11:11:35;;;;;;;11.95;10.75;;;;;;;18.00;100.00;99546.59;5124257;27;20494;-70
2022/09/26 11:14:03;;;;;;;13.25;11.10;;;;;;;17.80;100.00;99534.78;5127806;27;20080;-70
2022/09/26 11:16:50;;;;;;;12.10;10.00;;;;;;;18.08;100.00;99548.31;5129907;27;20031;-69
2022/09/26 11:19:49;;;;;;;12.07;10.18;;;;;;;18.08;100.00;99554.53;5114574;27;20038;-69
2022/09/26 11:22:39;;;;;;;11.45;9.95;;;;;;;17.98;100.00;99549.50;5125103;27;20042;-69
2022/09/26 11:25:13;;;;;;;12.73;10.20;;;;;;;18.06;100.00;99541.16;5127680;27;20512;-70
2022/09/26 11:27:44;;;;;;;12.20;10.65;;;;;;;17.98;100.00;99538.63;5111992;27;20080;-69
2022/09/26 11:30:18;;;;;;;11.93;10.43;;;;;;;17.94;100.00;99540.09;5123611;27;20510;-70
2022/09/26 11:32:48;;;;;;;11.80;10.60;;;;;;;17.95;100.00;99541.75;5117651;27;20016;-69
2022/09/26 11:35:32;;;;;;;12.32;10.75;;;;;;;18.09;100.00;99539.97;5122109;27;20042;-69
2022/09/26 11:38:19;;;;;;;14.60;11.60;;;;;;;18.01;100.00;99530.09;5112152;27;20019;-68
2022/09/26 11:41:12;;;;;;;14.02;11.50;;;;;;;18.09;100.00;99543.50;5128094;27;20023;-70
2022/09/26 11:43:46;;;;;;;12.80;10.63;;;;;;;18.00;100.00;99539.25;5128174;27;20452;-69
2022/09/26 11:46:35;;;;;;;11.20;10.00;;;;;;;17.96;100.00;99545.31;5128442;27;20023;-66
2022/09/26 11:49:25;;;;;;;11.82;10.40;;;;;;;17.93;100.00;99545.72;5115878;27;20023;-66
2022/09/26 11:52:28;;;;;;;11.02;9.73;;;;;;;17.92;100.00;99547.56;5126480;27;20057;-66
2022/09/26 11:54:55;;;;;;;13.60;10.55;;;;;;;17.81;100.00;99542.72;5128312;27;20386;-66